createdAt,value
2016-08-21T04:00:27.694Z,50.26
2016-08-21T04:00:53.248Z,50.26
2016-08-21T04:01:18.819Z,50.64
2016-08-21T04:01:44.385Z,50.54
2016-08-21T04:02:09.993Z,50.54
2016-08-21T04:02:35.552Z,50.54
2016-08-21T04:03:01.126Z,50.54
2016-08-21T04:03:26.816Z,50.35
2016-08-21T04:03:52.409Z,50.45
2016-08-21T04:04:17.970Z,50.54
2016-08-21T04:04:43.616Z,50.35
2016-08-21T04:05:09.181Z,50.54
2016-08-21T04:05:34.736Z,50.54
2016-08-21T04:06:00.297Z,50.54
2016-08-21T04:06:25.855Z,50.45
2016-08-21T04:06:51.423Z,50.06
2016-08-21T04:07:16.979Z,50.06
2016-08-21T04:07:42.550Z,50.54
2016-08-21T04:08:08.116Z,49.96
2016-08-21T04:08:33.724Z,50.35
2016-08-21T04:08:59.371Z,50.06
2016-08-21T04:09:24.935Z,49.87
2016-08-21T04:09:50.501Z,50.06
2016-08-21T04:10:16.081Z,50.06
2016-08-21T04:10:41.704Z,49.87
2016-08-21T04:11:07.389Z,50.06
2016-08-21T04:11:32.950Z,49.87
2016-08-21T04:11:58.537Z,49.87
2016-08-21T04:12:24.130Z,49.77
2016-08-21T04:12:49.727Z,50.06
2016-08-21T04:13:15.296Z,49.87
2016-08-21T04:13:40.872Z,50.06
2016-08-21T04:14:06.444Z,49.96
2016-08-21T04:14:32.001Z,49.87
2016-08-21T04:14:57.574Z,50.16
2016-08-21T04:15:23.140Z,50.26
2016-08-21T04:15:48.701Z,50.06
2016-08-21T04:16:14.260Z,49.87
2016-08-21T04:16:39.811Z,50.06
2016-08-21T04:17:05.369Z,50.16
2016-08-21T04:17:30.956Z,50.06
2016-08-21T04:17:56.554Z,50.06
2016-08-21T04:18:22.121Z,50.16
2016-08-21T04:18:47.672Z,50.26
2016-08-21T04:19:13.241Z,50.06
2016-08-21T04:19:38.815Z,49.96
2016-08-21T04:20:04.367Z,50.26
2016-08-21T04:20:29.915Z,50.06
2016-08-21T04:20:55.476Z,49.87
2016-08-21T04:21:21.031Z,50.06
2016-08-21T04:21:46.578Z,50.16
2016-08-21T04:22:12.146Z,50.16
2016-08-21T04:22:37.825Z,50.16
2016-08-21T04:23:03.395Z,50.16
2016-08-21T04:23:29.077Z,49.96
2016-08-21T04:23:54.711Z,50.06
2016-08-21T04:24:20.295Z,50.16
2016-08-21T04:24:45.896Z,50.16
2016-08-21T04:25:11.522Z,49.96
2016-08-21T04:25:37.086Z,50.16
2016-08-21T04:26:02.648Z,49.96
2016-08-21T04:26:28.246Z,50.26
2016-08-21T04:26:53.832Z,50.06
2016-08-21T04:27:19.394Z,50.06
2016-08-21T04:27:44.973Z,50.06
2016-08-21T04:28:10.537Z,50.06
2016-08-21T04:28:36.084Z,50.16
2016-08-21T04:29:01.702Z,50.16
2016-08-21T04:29:27.263Z,50.16
2016-08-21T04:29:52.834Z,50.16
2016-08-21T04:30:18.516Z,49.96
2016-08-21T04:30:44.090Z,50.16
2016-08-21T04:31:09.639Z,50.16
2016-08-21T04:31:35.217Z,50.16
2016-08-21T04:32:00.799Z,49.96
2016-08-21T04:32:26.349Z,50.26
2016-08-21T04:32:51.938Z,49.87
2016-08-21T04:33:17.473Z,50.26
2016-08-21T04:33:43.030Z,50.16
2016-08-21T04:34:08.589Z,50.06
2016-08-21T04:34:34.239Z,50.26
2016-08-21T04:34:59.815Z,50.35
2016-08-21T04:35:25.468Z,50.26
2016-08-21T04:35:51.036Z,49.68
2016-08-21T04:36:16.603Z,50.26
2016-08-21T04:36:42.235Z,50.26
2016-08-21T04:37:07.778Z,50.06
2016-08-21T04:37:33.341Z,50.35
2016-08-21T04:37:58.923Z,50.26
2016-08-21T04:38:24.494Z,49.87
2016-08-21T04:38:50.062Z,50.16
2016-08-21T04:39:15.618Z,50.16
2016-08-21T04:39:41.297Z,50.45
2016-08-21T04:40:06.844Z,50.35
2016-08-21T04:40:32.414Z,50.26
2016-08-21T04:40:58.032Z,50.16
2016-08-21T04:41:23.613Z,50.26
2016-08-21T04:41:49.190Z,50.45
2016-08-21T04:42:14.853Z,50.45
2016-08-21T04:42:40.445Z,50.26
2016-08-21T04:43:06.015Z,50.26
2016-08-21T04:43:31.596Z,50.26
2016-08-21T04:43:57.173Z,50.35
2016-08-21T04:44:22.760Z,50.06
2016-08-21T04:44:48.335Z,50.54
2016-08-21T04:45:13.881Z,50.06
2016-08-21T04:45:39.450Z,49.96
2016-08-21T04:46:37.705Z,50.06
2016-08-21T04:47:03.279Z,49.87
2016-08-21T04:47:28.839Z,50.06
2016-08-21T04:47:54.516Z,50.06
2016-08-21T04:48:20.056Z,50.06
2016-08-21T04:48:45.646Z,50.06
2016-08-21T04:49:11.292Z,50.06
2016-08-21T04:49:36.847Z,50.16
2016-08-21T04:50:02.422Z,49.87
2016-08-21T04:50:28.027Z,50.06
2016-08-21T04:50:53.584Z,49.96
2016-08-21T04:51:19.159Z,50.16
2016-08-21T04:51:44.911Z,49.77
2016-08-21T04:52:10.513Z,49.77
2016-08-21T04:52:36.045Z,50.26
2016-08-21T04:53:01.617Z,50.06
2016-08-21T04:53:27.180Z,50.16
2016-08-21T04:53:52.763Z,49.87
2016-08-21T04:54:18.338Z,49.96
2016-08-21T04:54:43.903Z,50.16
2016-08-21T04:55:09.459Z,50.06
2016-08-21T04:55:35.022Z,50.06
2016-08-21T04:56:00.598Z,50.16
2016-08-21T04:56:26.156Z,50.16
2016-08-21T04:56:51.740Z,50.16
2016-08-21T04:57:17.335Z,50.26
2016-08-21T04:57:42.887Z,50.06
2016-08-21T04:58:08.449Z,49.87
2016-08-21T04:58:34.022Z,49.96
2016-08-21T04:58:59.694Z,49.96
2016-08-21T04:59:25.263Z,49.96
2016-08-21T05:00:23.400Z,50.16
2016-08-21T05:00:48.994Z,49.96
2016-08-21T05:01:14.554Z,50.06
2016-08-21T05:03:21.693Z,50.06
2016-08-21T05:03:47.271Z,49.96
2016-08-21T05:04:12.922Z,49.96
2016-08-21T05:04:38.486Z,50.06
2016-08-21T05:05:04.082Z,50.06
2016-08-21T05:05:29.747Z,50.06
2016-08-21T05:05:55.380Z,49.96
2016-08-21T05:06:20.949Z,50.06
2016-08-21T05:06:46.492Z,50.16
2016-08-21T05:07:12.054Z,50.16
2016-08-21T05:07:37.625Z,50.26
2016-08-21T05:08:03.195Z,50.16
2016-08-21T05:08:28.782Z,50.16
2016-08-21T05:08:54.352Z,50.16
2016-08-21T05:09:20.000Z,50.06
2016-08-21T05:09:45.552Z,50.16
2016-08-21T05:10:11.127Z,50.16
2016-08-21T05:10:36.723Z,50.26
2016-08-21T05:11:02.302Z,50.16
2016-08-21T05:11:27.865Z,50.06
2016-08-21T05:11:53.453Z,50.16
2016-08-21T05:12:19.005Z,50.16
2016-08-21T05:12:44.832Z,50.16
2016-08-21T05:13:10.394Z,50.06
2016-08-21T05:13:35.964Z,50.06
2016-08-21T05:14:01.523Z,49.87
2016-08-21T05:14:27.091Z,50.06
2016-08-21T05:14:52.657Z,49.96
2016-08-21T05:15:18.322Z,50.16
2016-08-21T05:15:43.885Z,50.06
2016-08-21T05:16:09.459Z,50.16
2016-08-21T05:16:35.130Z,50.26
2016-08-21T05:17:00.662Z,50.06
2016-08-21T05:17:26.219Z,49.96
2016-08-21T05:17:51.791Z,49.96
2016-08-21T05:18:17.333Z,50.06
2016-08-21T05:18:42.967Z,50.16
2016-08-21T05:19:08.544Z,50.06
2016-08-21T05:19:34.112Z,49.96
2016-08-21T05:19:59.777Z,49.87
2016-08-21T05:20:25.324Z,50.26
2016-08-21T05:20:50.876Z,49.87
2016-08-21T05:21:16.439Z,50.26
2016-08-21T05:21:41.980Z,50.16
2016-08-21T05:22:07.551Z,50.26
2016-08-21T05:22:33.099Z,50.26
2016-08-21T05:22:58.670Z,50.16
2016-08-21T05:23:24.225Z,50.06
2016-08-21T05:23:49.814Z,50.26
2016-08-21T05:24:15.375Z,50.06
2016-08-21T05:24:40.955Z,50.06
2016-08-21T05:25:06.544Z,50.06
2016-08-21T05:25:32.102Z,50.26
2016-08-21T05:25:57.669Z,50.26
2016-08-21T05:26:23.241Z,50.26
2016-08-21T05:26:48.814Z,50.16
2016-08-21T05:27:14.373Z,49.77
2016-08-21T05:27:40.139Z,50.06
2016-08-21T05:28:05.688Z,50.06
2016-08-21T05:28:31.242Z,50.06
2016-08-21T05:28:56.875Z,50.06
2016-08-21T05:29:22.441Z,50.16
2016-08-21T05:29:48.015Z,50.06
2016-08-21T05:30:13.695Z,50.16
2016-08-21T05:30:39.250Z,50.06
2016-08-21T05:31:04.847Z,50.06
2016-08-21T05:31:30.422Z,49.96
2016-08-21T05:31:55.995Z,49.87
2016-08-21T05:32:21.548Z,50.16
2016-08-21T05:32:47.117Z,50.16
2016-08-21T05:33:12.686Z,50.06
2016-08-21T05:33:38.263Z,49.77
2016-08-21T05:34:03.895Z,50.16
2016-08-21T05:34:29.466Z,49.96
2016-08-21T05:34:55.034Z,50.06
2016-08-21T05:35:20.625Z,49.87
2016-08-21T05:35:46.178Z,50.16
2016-08-21T05:36:11.754Z,50.16
2016-08-21T05:36:37.320Z,50.06
2016-08-21T05:37:02.880Z,49.96
2016-08-21T05:37:28.463Z,50.26
2016-08-21T05:37:54.022Z,50.16
2016-08-21T05:38:19.593Z,50.06
2016-08-21T05:38:45.216Z,50.06
2016-08-21T05:39:10.789Z,49.87
2016-08-21T05:39:36.344Z,50.16
2016-08-21T05:40:01.930Z,50.35
2016-08-21T05:40:27.487Z,50.06
2016-08-21T05:40:53.065Z,50.54
2016-08-21T05:41:18.634Z,49.96
2016-08-21T05:41:44.254Z,50.26
2016-08-21T05:42:09.808Z,50.06
2016-08-21T05:42:35.376Z,49.87
2016-08-21T05:43:00.930Z,50.16
2016-08-21T05:43:26.485Z,49.96
2016-08-21T05:43:52.028Z,49.96
2016-08-21T05:44:17.585Z,50.06
2016-08-21T05:44:43.264Z,50.06
2016-08-21T05:45:08.821Z,50.16
2016-08-21T05:45:34.407Z,50.06
2016-08-21T05:45:59.980Z,50.16
2016-08-21T05:46:25.544Z,49.87
2016-08-21T05:46:51.207Z,50.06
2016-08-21T05:47:16.759Z,50.06
2016-08-21T05:47:42.332Z,50.06
2016-08-21T05:48:08.002Z,50.06
2016-08-21T05:48:33.594Z,50.06
2016-08-21T05:48:59.180Z,50.06
2016-08-21T05:49:24.758Z,49.87
2016-08-21T05:49:50.306Z,50.16
2016-08-21T05:50:15.858Z,50.06
2016-08-21T05:50:41.586Z,50.16
2016-08-21T05:51:07.164Z,50.06
2016-08-21T05:51:32.744Z,50.26
2016-08-21T05:51:58.315Z,50.06
2016-08-21T05:52:23.880Z,49.58
2016-08-21T05:52:49.440Z,49.39
2016-08-21T05:53:15.071Z,49.68
2016-08-21T05:53:40.660Z,49.58
2016-08-21T05:54:06.219Z,49.87
2016-08-21T05:54:31.792Z,49.58
2016-08-21T05:54:57.373Z,49.6
2016-08-21T05:55:22.946Z,48.9
2016-08-21T05:55:48.581Z,49.32
2016-08-21T05:56:14.154Z,49.32
2016-08-21T05:56:39.721Z,49.22
2016-08-21T05:57:05.399Z,49.41
2016-08-21T05:57:31.002Z,49.12
2016-08-21T05:57:56.592Z,49.02
2016-08-21T05:58:22.166Z,48.83
2016-08-21T05:58:47.729Z,49.12
2016-08-21T05:59:13.304Z,49.02
2016-08-21T05:59:38.869Z,48.93
2016-08-21T06:00:04.458Z,48.93
2016-08-21T06:01:02.704Z,48.93
2016-08-21T06:01:28.276Z,48.93
2016-08-21T06:01:53.897Z,48.83
2016-08-21T06:02:19.469Z,49.02
2016-08-21T06:02:45.040Z,49.02
2016-08-21T06:03:10.602Z,49.12
2016-08-21T06:03:36.174Z,49.32
2016-08-21T06:04:01.731Z,49.02
2016-08-21T06:04:27.321Z,49.22
2016-08-21T06:04:52.885Z,49.22
2016-08-21T06:05:18.421Z,49.02
2016-08-21T06:05:43.974Z,49.02
2016-08-21T06:06:09.539Z,49.02
2016-08-21T06:06:35.122Z,49.12
2016-08-21T06:07:00.746Z,49.02
2016-08-21T06:07:26.321Z,49.32
2016-08-21T06:07:51.883Z,49.32
2016-08-21T06:08:17.426Z,49.12
2016-08-21T06:08:43.153Z,49.51
2016-08-21T06:09:08.727Z,49.6
2016-08-21T06:09:34.365Z,49.41
2016-08-21T06:09:59.912Z,49.41
2016-08-21T06:10:25.476Z,49.7
2016-08-21T06:10:51.153Z,49.51
2016-08-21T06:11:16.740Z,49.51
2016-08-21T06:11:42.344Z,49.41
2016-08-21T06:12:07.922Z,49.51
2016-08-21T06:12:33.481Z,49.41
2016-08-21T06:12:59.059Z,49.41
2016-08-21T06:13:24.621Z,49.41
2016-08-21T06:13:50.191Z,49.41
2016-08-21T06:14:15.750Z,49.22
2016-08-21T06:14:41.324Z,49.7
2016-08-21T06:15:06.902Z,49.51
2016-08-21T06:15:32.492Z,49.7
2016-08-21T06:15:58.043Z,49.51
2016-08-21T06:16:23.620Z,49.32
2016-08-21T06:16:49.250Z,49.41
2016-08-21T06:17:14.913Z,49.22
2016-08-21T06:17:40.477Z,49.41
2016-08-21T06:18:06.035Z,49.22
2016-08-21T06:18:31.709Z,49.12
2016-08-21T06:18:57.318Z,49.22
2016-08-21T06:19:22.887Z,49.22
2016-08-21T06:19:48.452Z,49.32
2016-08-21T06:20:14.033Z,49.12
2016-08-21T06:20:39.611Z,49.22
2016-08-21T06:21:05.213Z,49.41
2016-08-21T06:21:30.768Z,49.32
2016-08-21T06:21:56.359Z,49.41
2016-08-21T06:22:21.912Z,49.32
2016-08-21T06:22:47.491Z,49.41
2016-08-21T06:23:13.058Z,49.32
2016-08-21T06:23:38.745Z,49.32
2016-08-21T06:24:04.321Z,49.32
2016-08-21T06:24:29.963Z,49.32
2016-08-21T06:24:55.574Z,49.32
2016-08-21T06:25:21.140Z,49.32
2016-08-21T06:25:46.715Z,49.32
2016-08-21T06:26:12.295Z,49.32
2016-08-21T06:26:37.911Z,49.32
2016-08-21T06:27:03.589Z,49.22
2016-08-21T06:27:29.236Z,49.32
2016-08-21T06:27:54.794Z,49.22
2016-08-21T06:28:20.379Z,49.32
2016-08-21T06:28:45.968Z,49.41
2016-08-21T06:29:11.528Z,49.22
2016-08-21T06:29:37.149Z,49.12
2016-08-21T06:30:02.712Z,49.51
2016-08-21T06:30:28.343Z,49.22
2016-08-21T06:30:54.117Z,49.41
2016-08-21T06:31:19.657Z,49.22
2016-08-21T06:31:45.221Z,49.12
2016-08-21T06:32:10.868Z,49.32
2016-08-21T06:32:36.400Z,49.22
2016-08-21T06:33:02.001Z,49.22
2016-08-21T06:33:27.558Z,49.51
2016-08-21T06:33:53.165Z,49.41
2016-08-21T06:34:18.716Z,49.51
2016-08-21T06:34:44.263Z,49.6
2016-08-21T06:35:09.830Z,49.51
2016-08-21T06:35:35.397Z,49.51
2016-08-21T06:36:01.008Z,49.32
2016-08-21T06:36:26.566Z,49.41
2016-08-21T06:36:52.140Z,49.41
2016-08-21T06:37:17.706Z,49.41
2016-08-21T06:37:43.278Z,49.41
2016-08-21T06:38:09.081Z,49.41
2016-08-21T06:38:34.655Z,49.41
2016-08-21T06:39:00.239Z,49.7
2016-08-21T06:39:25.848Z,49.41
2016-08-21T06:39:51.448Z,49.6
2016-08-21T06:40:17.029Z,49.6
2016-08-21T06:40:42.583Z,49.8
2016-08-21T06:41:08.162Z,49.51
2016-08-21T06:41:33.734Z,49.8
2016-08-21T06:41:59.291Z,49.6
2016-08-21T06:42:24.945Z,49.51
2016-08-21T06:42:50.425Z,49.8
2016-08-21T06:43:15.992Z,49.8
2016-08-21T06:43:41.547Z,49.41
2016-08-21T06:44:07.162Z,49.6
2016-08-21T06:44:32.717Z,49.51
2016-08-21T06:44:58.377Z,49.7
2016-08-21T06:45:23.954Z,49.6
2016-08-21T06:45:49.552Z,49.7
2016-08-21T06:46:15.159Z,49.51
2016-08-21T06:46:40.761Z,49.6
2016-08-21T06:47:06.310Z,49.8
2016-08-21T06:47:31.878Z,49.7
2016-08-21T06:47:57.447Z,49.8
2016-08-21T06:48:23.021Z,49.8
2016-08-21T06:48:48.745Z,49.8
2016-08-21T06:49:14.342Z,50.09
2016-08-21T06:49:39.947Z,50.28
2016-08-21T06:50:05.507Z,49.9
2016-08-21T06:50:31.087Z,50.18
2016-08-21T06:50:56.645Z,50.57
2016-08-21T06:51:22.237Z,50.18
2016-08-21T06:51:47.815Z,50.47
2016-08-21T06:52:13.582Z,50.57
2016-08-21T06:52:39.135Z,50.57
2016-08-21T06:53:04.729Z,50.86
2016-08-21T06:53:30.305Z,50.86
2016-08-21T06:53:56.010Z,51.15
2016-08-21T06:54:21.533Z,51.15
2016-08-21T06:54:47.104Z,51.25
2016-08-21T06:55:12.879Z,51.25
2016-08-21T06:55:38.359Z,51.25
2016-08-21T06:56:04.212Z,51.05
2016-08-21T06:56:29.785Z,51.44
2016-08-21T06:57:33.088Z,51.15
2016-08-21T06:57:58.694Z,51.03
2016-08-21T06:58:24.459Z,51.03
2016-08-21T06:58:50.025Z,50.93
2016-08-21T06:59:15.596Z,50.86
2016-08-21T06:59:41.160Z,50.76
2016-08-21T07:00:06.770Z,50.84
2016-08-21T07:00:32.337Z,50.84
2016-08-21T07:00:57.891Z,50.93
2016-08-21T07:01:23.461Z,50.93
2016-08-21T07:01:49.043Z,50.64
2016-08-21T07:02:14.602Z,50.93
2016-08-21T07:02:40.273Z,51.05
2016-08-21T07:03:05.841Z,51.05
2016-08-21T07:03:31.410Z,50.93
2016-08-21T07:03:57.058Z,50.86
2016-08-21T07:04:22.596Z,50.84
2016-08-21T07:04:48.169Z,50.84
2016-08-21T07:05:13.752Z,50.93
2016-08-21T07:05:39.441Z,50.74
2016-08-21T07:06:05.058Z,51.03
2016-08-21T07:06:30.607Z,50.76
2016-08-21T07:06:56.207Z,50.93
2016-08-21T07:07:21.749Z,51.12
2016-08-21T07:07:47.327Z,51.03
2016-08-21T07:08:13.023Z,50.84
2016-08-21T07:08:38.590Z,50.93
2016-08-21T07:09:04.166Z,50.93
2016-08-21T07:09:29.794Z,50.86
2016-08-21T07:09:55.399Z,50.86
2016-08-21T07:10:21.016Z,51.03
2016-08-21T07:10:46.563Z,50.96
2016-08-21T07:11:12.122Z,50.74
2016-08-21T07:11:37.668Z,51.82
2016-08-21T07:12:03.220Z,51.53
2016-08-21T07:12:28.776Z,51.92
2016-08-21T07:13:32.047Z,50.86
2016-08-21T07:13:57.622Z,51.15
2016-08-21T07:14:23.195Z,51.22
2016-08-21T07:14:48.777Z,51.63
2016-08-21T07:15:14.376Z,51.53
2016-08-21T07:15:39.971Z,52.11
2016-08-21T07:16:05.548Z,51.63
2016-08-21T07:16:31.125Z,52.89
2016-08-21T07:16:56.749Z,52.79
2016-08-21T07:17:22.554Z,53.17
2016-08-21T07:17:48.118Z,52.5
2016-08-21T07:18:13.683Z,52.4
2016-08-21T07:18:39.358Z,52.37
2016-08-21T07:19:04.922Z,52.19
2016-08-21T07:19:30.598Z,51.89
2016-08-21T07:19:56.181Z,52.76
2016-08-21T07:20:21.756Z,52.37
2016-08-21T07:20:47.298Z,52.4
2016-08-21T07:21:12.873Z,52.95
2016-08-21T07:22:26.409Z,52.98
2016-08-21T07:22:51.968Z,52.76
2016-08-21T07:23:17.527Z,51.89
2016-08-21T07:23:43.141Z,51.89
2016-08-21T07:24:08.853Z,52.86
2016-08-21T07:24:34.449Z,52.67
2016-08-21T07:25:00.021Z,52.89
2016-08-21T07:25:25.612Z,53.17
2016-08-21T07:25:51.290Z,52.67
2016-08-21T07:26:16.874Z,52.47
2016-08-21T07:26:42.429Z,52.37
2016-08-21T07:27:07.979Z,52.01
2016-08-21T07:27:33.558Z,52.37
2016-08-21T07:27:59.136Z,51.99
2016-08-21T07:28:24.707Z,52.19
2016-08-21T07:28:50.315Z,52.19
2016-08-21T07:29:15.943Z,52.37
2016-08-21T07:29:41.579Z,52.19
2016-08-21T07:30:07.219Z,52.01
2016-08-21T07:30:32.826Z,51.99
2016-08-21T07:30:58.402Z,51.61
2016-08-21T07:31:24.041Z,51.51
2016-08-21T07:32:32.423Z,51.99
2016-08-21T07:32:57.905Z,51.8
2016-08-21T07:33:23.459Z,51.7
2016-08-21T07:33:49.034Z,51.61
2016-08-21T07:34:14.656Z,51.7
2016-08-21T07:34:40.248Z,51.7
2016-08-21T07:35:05.853Z,51.89
2016-08-21T07:35:31.390Z,51.63
2016-08-21T07:35:56.950Z,51.7
2016-08-21T07:36:22.504Z,51.8
2016-08-21T07:36:48.053Z,51.89
2016-08-21T07:37:13.687Z,51.41
2016-08-21T07:37:39.285Z,51.61
2016-08-21T07:38:04.926Z,51.73
2016-08-21T07:38:30.499Z,51.73
2016-08-21T07:38:56.170Z,51.7
2016-08-21T07:39:21.738Z,51.7
2016-08-21T07:39:47.339Z,51.61
2016-08-21T07:40:12.927Z,51.99
2016-08-21T07:40:38.495Z,51.92
2016-08-21T07:41:04.071Z,51.8
2016-08-21T07:41:29.856Z,51.53
2016-08-21T07:41:55.478Z,51.53
2016-08-21T07:42:21.169Z,51.73
2016-08-21T07:42:46.820Z,51.73
2016-08-21T07:43:12.395Z,51.44
2016-08-21T07:43:37.957Z,51.63
2016-08-21T07:44:03.527Z,51.82
2016-08-21T07:44:29.083Z,51.63
2016-08-21T07:44:54.641Z,51.82
2016-08-21T07:45:20.219Z,51.82
2016-08-21T07:45:45.789Z,51.63
2016-08-21T07:46:11.366Z,51.63
2016-08-21T07:46:36.975Z,52.31
2016-08-21T07:47:02.561Z,52.21
2016-08-21T07:47:28.116Z,52.4
2016-08-21T07:47:53.676Z,51.82
2016-08-21T07:48:19.250Z,51.53
2016-08-21T07:48:44.826Z,51.53
2016-08-21T07:49:10.437Z,51.63
2016-08-21T07:49:36.123Z,51.63
2016-08-21T07:50:01.690Z,51.73
2016-08-21T07:51:15.116Z,51.63
2016-08-21T07:51:40.685Z,51.05
2016-08-21T07:52:06.272Z,50.96
2016-08-21T07:52:31.970Z,51.05
2016-08-21T07:52:57.526Z,51.05
2016-08-21T07:53:23.111Z,51.15
2016-08-21T07:53:48.665Z,51.15
2016-08-21T07:54:14.224Z,50.96
2016-08-21T07:54:39.778Z,50.96
2016-08-21T07:55:05.378Z,50.96
2016-08-21T07:55:30.940Z,50.96
2016-08-21T07:55:56.520Z,50.76
2016-08-21T07:56:22.076Z,50.96
2016-08-21T07:56:47.647Z,50.86
2016-08-21T07:57:13.211Z,50.86
2016-08-21T07:57:38.894Z,51.05
2016-08-21T07:58:04.470Z,50.86
2016-08-21T07:58:30.163Z,50.67
2016-08-21T07:58:55.928Z,50.38
2016-08-21T07:59:21.585Z,50.38
2016-08-21T07:59:47.175Z,50.47
2016-08-21T08:00:12.751Z,50.38
2016-08-21T08:00:38.394Z,50.28
2016-08-21T08:01:03.944Z,50.57
2016-08-21T08:01:29.534Z,50.47
2016-08-21T08:01:55.093Z,50.09
2016-08-21T08:02:20.662Z,50.09
2016-08-21T08:02:46.208Z,50.09
2016-08-21T08:03:11.770Z,50.45
2016-08-21T08:03:37.335Z,49.9
2016-08-21T08:04:03.110Z,50.06
2016-08-21T08:04:28.699Z,49.87
2016-08-21T08:04:54.283Z,49.87
2016-08-21T08:05:19.849Z,50.16
2016-08-21T08:06:33.376Z,50.26
2016-08-21T08:06:58.954Z,50.26
2016-08-21T08:07:24.592Z,49.96
2016-08-21T08:07:50.156Z,50.06
2016-08-21T08:08:15.756Z,49.96
2016-08-21T08:08:41.331Z,49.9
2016-08-21T08:09:06.909Z,50.47
2016-08-21T08:09:32.431Z,50.35
2016-08-21T08:09:57.992Z,50.57
2016-08-21T08:10:23.571Z,49.99
2016-08-21T08:10:49.121Z,50.06
2016-08-21T08:11:14.790Z,50.28
2016-08-21T08:11:40.380Z,50.06
2016-08-21T08:12:06.054Z,50.06
2016-08-21T08:12:31.627Z,49.99
2016-08-21T08:12:57.205Z,50.26
2016-08-21T08:13:22.757Z,49.7
2016-08-21T08:13:48.300Z,49.87
2016-08-21T08:14:13.950Z,49.39
2016-08-21T08:14:39.522Z,49.39
2016-08-21T08:15:05.100Z,49.51
2016-08-21T08:15:30.778Z,49.32
2016-08-21T08:16:34.243Z,49.19
2016-08-21T08:16:59.812Z,49.02
2016-08-21T08:17:25.400Z,48.83
2016-08-21T08:17:51.146Z,48.93
2016-08-21T08:18:16.947Z,49
2016-08-21T08:18:42.518Z,49.1
2016-08-21T08:19:08.077Z,48.81
2016-08-21T08:19:33.896Z,48.74
2016-08-21T08:19:59.478Z,49.19
2016-08-21T08:20:25.608Z,49.12
2016-08-21T08:20:51.372Z,49.1
2016-08-21T08:21:16.945Z,49.1
2016-08-21T08:21:42.914Z,48.33
2016-08-21T08:22:08.492Z,49.19
2016-08-21T08:22:34.665Z,48.83
2016-08-21T08:23:00.232Z,49
2016-08-21T08:23:26.000Z,48.81
2016-08-21T08:23:52.060Z,48.93
2016-08-21T08:24:17.684Z,48.9
2016-08-21T08:24:43.799Z,49.1
2016-08-21T08:25:09.406Z,49.32
2016-08-21T08:25:35.603Z,49.39
2016-08-21T08:26:01.185Z,49.19
2016-08-21T08:26:26.772Z,49.29
2016-08-21T08:26:53.024Z,49.1
2016-08-21T08:27:18.602Z,49.12
2016-08-21T08:27:44.742Z,48.9
2016-08-21T08:28:10.301Z,49.39
2016-08-21T08:28:35.868Z,49.48
2016-08-21T08:29:02.093Z,49.48
2016-08-21T08:29:27.693Z,49.58
2016-08-21T08:29:53.899Z,50.26
2016-08-21T08:30:19.455Z,49.68
2016-08-21T08:30:45.687Z,50.26
2016-08-21T08:31:11.258Z,50.06
2016-08-21T08:31:36.856Z,50.16
2016-08-21T08:32:03.114Z,50.06
2016-08-21T08:33:06.327Z,49.96
2016-08-21T08:33:31.895Z,50.06
2016-08-21T08:33:57.460Z,49.96
2016-08-21T08:34:23.017Z,50.45
2016-08-21T08:34:48.587Z,50.35
2016-08-21T08:35:14.147Z,50.06
2016-08-21T08:35:39.707Z,50.26
2016-08-21T08:36:05.265Z,50.16
2016-08-21T08:36:30.827Z,49.96
2016-08-21T08:36:56.404Z,50.26
2016-08-21T08:37:22.027Z,49.96
2016-08-21T08:37:47.652Z,50.06
2016-08-21T08:38:13.276Z,50.16
2016-08-21T08:38:38.827Z,49.87
2016-08-21T08:39:04.397Z,49.87
2016-08-21T08:39:30.041Z,49.77
2016-08-21T08:39:55.597Z,50.16
2016-08-21T08:40:21.177Z,50.09
2016-08-21T08:41:29.469Z,50.45
2016-08-21T08:41:55.137Z,50.26
2016-08-21T08:42:20.708Z,50.54
2016-08-21T08:42:46.650Z,50.35
2016-08-21T08:43:12.217Z,50.54
2016-08-21T08:43:37.820Z,50.26
2016-08-21T08:44:03.395Z,50.35
2016-08-21T08:44:28.980Z,50.54
2016-08-21T08:44:54.558Z,50.16
2016-08-21T08:45:20.159Z,50.45
2016-08-21T08:45:45.707Z,50.35
2016-08-21T08:46:11.305Z,50.45
2016-08-21T08:46:36.993Z,50.26
2016-08-21T08:47:02.566Z,50.35
2016-08-21T08:47:28.140Z,50.74
2016-08-21T08:47:53.722Z,51.32
2016-08-21T08:48:19.294Z,50.93
2016-08-21T08:48:44.863Z,50.93
2016-08-21T08:49:10.416Z,51.05
2016-08-21T08:49:36.044Z,51.03
2016-08-21T08:50:01.544Z,51.05
2016-08-21T08:50:27.110Z,51.03
2016-08-21T08:50:52.697Z,50.84
2016-08-21T08:51:18.285Z,50.96
2016-08-21T08:51:43.841Z,51.15
2016-08-21T08:52:09.439Z,51.7
2016-08-21T08:52:35.023Z,51.92
2016-08-21T08:53:00.595Z,51.73
2016-08-21T08:53:26.152Z,51.34
2016-08-21T08:53:51.719Z,51.22
2016-08-21T08:54:17.372Z,51.25
2016-08-21T08:54:42.926Z,50.84
2016-08-21T08:55:08.508Z,51.25
2016-08-21T08:55:34.077Z,50.96
2016-08-21T08:56:32.149Z,50.45
2016-08-21T08:56:57.706Z,50.18
2016-08-21T08:57:23.262Z,50.16
2016-08-21T08:57:48.992Z,50.26
2016-08-21T08:58:14.555Z,50.16
2016-08-21T08:58:40.116Z,49.87
2016-08-21T08:59:05.682Z,50.47
2016-08-21T08:59:31.307Z,50.06
2016-08-21T08:59:56.895Z,50.45
2016-08-21T09:00:22.448Z,50.26
2016-08-21T09:00:48.032Z,50.45
2016-08-21T09:01:13.607Z,50.35
2016-08-21T09:01:39.174Z,50.45
2016-08-21T09:02:04.737Z,50.16
2016-08-21T09:02:30.309Z,50.06
2016-08-21T09:02:55.976Z,50.06
2016-08-21T09:03:21.595Z,50.26
2016-08-21T09:03:47.163Z,49.8
2016-08-21T09:04:12.737Z,50.06
2016-08-21T09:04:38.392Z,50.26
2016-08-21T09:05:03.957Z,50.06
2016-08-21T09:05:29.515Z,50.26
2016-08-21T09:05:55.084Z,49.77
2016-08-21T09:06:20.675Z,49.58
2016-08-21T09:06:46.245Z,49.68
2016-08-21T09:07:11.806Z,49.58
2016-08-21T09:07:37.370Z,49.48
2016-08-21T09:08:02.918Z,49.7
2016-08-21T09:08:28.489Z,49.68
2016-08-21T09:08:54.074Z,49.6
2016-08-21T09:09:19.754Z,49.6
2016-08-21T09:09:45.320Z,49.41
2016-08-21T09:10:10.892Z,49.87
2016-08-21T09:10:36.566Z,49.39
2016-08-21T09:11:02.131Z,49.68
2016-08-21T09:11:27.702Z,49.48
2016-08-21T09:11:53.269Z,49.77
2016-08-21T09:12:18.841Z,49.6
2016-08-21T09:12:44.434Z,49.48
2016-08-21T09:13:10.014Z,49.68
2016-08-21T09:13:35.589Z,49.48
2016-08-21T09:14:01.154Z,49.39
2016-08-21T09:14:26.714Z,49.39
2016-08-21T09:14:52.274Z,49.58
2016-08-21T09:15:17.852Z,50.06
2016-08-21T09:15:43.422Z,49.87
2016-08-21T09:16:09.004Z,49.68
2016-08-21T09:16:34.577Z,49.77
2016-08-21T09:17:00.154Z,49.19
2016-08-21T09:17:25.712Z,49.58
2016-08-21T09:17:51.288Z,49.68
2016-08-21T09:18:16.952Z,49.7
2016-08-21T09:19:32.534Z,49.68
2016-08-21T09:21:45.854Z,49.96
2016-08-21T09:22:11.405Z,50.16
2016-08-21T09:22:37.000Z,49.58
2016-08-21T09:23:02.599Z,49.58
2016-08-21T09:23:28.168Z,49.58
2016-08-21T09:23:53.743Z,49.19
2016-08-21T09:24:19.299Z,49.19
2016-08-21T09:24:44.963Z,49.19
2016-08-21T09:25:10.537Z,49.29
2016-08-21T09:25:36.107Z,49.19
2016-08-21T09:26:01.694Z,49.29
2016-08-21T09:26:27.283Z,49
2016-08-21T09:26:52.918Z,49
2016-08-21T09:27:18.475Z,49.19
2016-08-21T09:27:44.089Z,49.29
2016-08-21T09:28:09.663Z,49.39
2016-08-21T09:28:35.223Z,48.9
2016-08-21T09:29:00.918Z,49.39
2016-08-21T09:29:26.776Z,49.1
2016-08-21T09:29:53.120Z,49.48
2016-08-21T09:30:18.702Z,49.58
2016-08-21T09:30:44.269Z,50.06
2016-08-21T09:31:09.850Z,49.48
2016-08-21T09:31:35.404Z,49.68
2016-08-21T09:32:00.993Z,49.1
2016-08-21T09:32:26.555Z,49.29
2016-08-21T09:32:52.113Z,49.68
2016-08-21T09:33:17.689Z,49.58
2016-08-21T09:33:43.366Z,49.96
2016-08-21T09:34:08.957Z,49.96
2016-08-21T09:34:34.525Z,50.06
2016-08-21T09:35:00.187Z,50.06
2016-08-21T09:35:25.768Z,50.16
2016-08-21T09:35:51.338Z,50.16
2016-08-21T09:36:16.926Z,49.96
2016-08-21T09:36:42.810Z,50.06
2016-08-21T09:37:08.399Z,50.06
2016-08-21T09:37:33.980Z,49.96
2016-08-21T09:37:59.542Z,49.87
2016-08-21T09:38:25.242Z,49.96
2016-08-21T09:38:50.879Z,49.96
2016-08-21T09:39:16.455Z,50.45
2016-08-21T09:39:42.132Z,50.26
2016-08-21T09:40:07.701Z,50.45
2016-08-21T09:40:33.275Z,50.16
2016-08-21T09:40:58.917Z,50.45
2016-08-21T09:41:24.495Z,50.45
2016-08-21T09:41:50.072Z,50.26
2016-08-21T09:42:15.640Z,50.47
2016-08-21T09:42:41.215Z,50.47
2016-08-21T09:43:06.863Z,50.54
2016-08-21T09:43:32.506Z,49.99